LFRN

Rennes/Saint-Jacques Airport

Airport
ICAO code
LFRN
IATA Code
RNS
Summary
ICAO Region
EUR
ICAO Territory
Location

Saint-Jacques,

Serving
Rennes
Elevation
124 ft
Coordinates
48° 4' 16" N , 1° 43' 47" W
KCC
Metar
Observation
LFRN 280400Z AUTO 21007KT CAVOK 08/07 Q1012 TEMPO 0800 FG
Station
Rennes
Date/Time
2022-11-28 04:00:00
Wind direction
210°
Wind speed
07 kts
Lowest cloud amount
clouds and visibility OK
Temperature
8°C
Dew point
7°C
Humidity
93%
QNH
1012 hPa
Weather condition
n/a

Runways

Designator Length Width Surface Rops
14/32 850 30 ASP Yes/Yes
10/28 2100 45 ASP Yes/Yes

Airport map

Aerial View

SKYbrary Partners:

Safety knowledge contributed by: